sensor_id;sensor_type;location;lat;lon;timestamp;P1;durP1;ratioP1;P2;durP2;ratioP2
70205;SDS011;57593;55.896;37.396;2022-08-21T00:00:15;64.75;;;40.67;;
70205;SDS011;57593;55.896;37.396;2022-08-21T00:00:49;55.90;;;40.50;;
70205;SDS011;57593;55.896;37.396;2022-08-21T00:01:21;61.55;;;40.25;;
70205;SDS011;57593;55.896;37.396;2022-08-21T00:01:54;56.25;;;39.58;;
70205;SDS011;57593;55.896;37.396;2022-08-21T00:02:26;53.22;;;39.25;;
70205;SDS011;57593;55.896;37.396;2022-08-21T00:02:59;59.47;;;40.42;;
70205;SDS011;57593;55.896;37.396;2022-08-21T00:03:32;53.95;;;40.33;;
70205;SDS011;57593;55.896;37.396;2022-08-21T00:04:04;53.78;;;39.72;;
70205;SDS011;57593;55.896;37.396;2022-08-21T00:04:38;56.53;;;39.42;;
70205;SDS011;57593;55.896;37.396;2022-08-21T00:05:08;57.72;;;40.38;;
70205;SDS011;57593;55.896;37.396;2022-08-21T00:05:41;53.85;;;39.83;;
70205;SDS011;57593;55.896;37.396;2022-08-21T00:06:17;54.72;;;40.22;;
70205;SDS011;57593;55.896;37.396;2022-08-21T00:06:49;52.38;;;38.17;;
70205;SDS011;57593;55.896;37.396;2022-08-21T00:07:21;59.58;;;40.58;;
70205;SDS011;57593;55.896;37.396;2022-08-21T00:07:52;52.03;;;40.08;;
70205;SDS011;57593;55.896;37.396;2022-08-21T00:08:22;53.50;;;39.80;;
70205;SDS011;57593;55.896;37.396;2022-08-21T00:08:53;56.60;;;38.00;;
70205;SDS011;57593;55.896;37.396;2022-08-21T00:09:24;60.10;;;39.97;;
70205;SDS011;57593;55.896;37.396;2022-08-21T00:09:54;58.08;;;40.20;;
70205;SDS011;57593;55.896;37.396;2022-08-21T00:10:25;52.03;;;38.65;;
70205;SDS011;57593;55.896;37.396;2022-08-21T00:10:56;56.40;;;39.67;;
70205;SDS011;57593;55.896;37.396;2022-08-21T00:11:27;58.28;;;39.47;;
70205;SDS011;57593;55.896;37.396;2022-08-21T00:11:58;54.53;;;38.80;;
70205;SDS011;57593;55.896;37.396;2022-08-21T00:12:29;52.15;;;38.97;;
70205;SDS011;57593;55.896;37.396;2022-08-21T00:13:02;52.30;;;38.88;;
70205;SDS011;57593;55.896;37.396;2022-08-21T00:13:35;53.97;;;39.10;;
70205;SDS011;57593;55.896;37.396;2022-08-21T00:14:06;53.30;;;38.30;;
70205;SDS011;57593;55.896;37.396;2022-08-21T00:14:39;56.05;;;39.95;;
70205;SDS011;57593;55.896;37.396;2022-08-21T00:15:12;55.88;;;40.70;;
70205;SDS011;57593;55.896;37.396;2022-08-21T00:15:49;56.65;;;39.60;;
70205;SDS011;57593;55.896;37.396;2022-08-21T00:16:20;52.65;;;38.88;;
70205;SDS011;57593;55.896;37.396;2022-08-21T00:16:50;55.97;;;39.45;;
70205;SDS011;57593;55.896;37.396;2022-08-21T00:17:21;58.00;;;39.70;;
70205;SDS011;57593;55.896;37.396;2022-08-21T00:17:53;54.05;;;40.25;;
70205;SDS011;57593;55.896;37.396;2022-08-21T00:18:25;53.90;;;38.63;;
70205;SDS011;57593;55.896;37.396;2022-08-21T00:18:56;56.17;;;38.67;;
70205;SDS011;57593;55.896;37.396;2022-08-21T00:19:26;54.75;;;39.50;;
70205;SDS011;57593;55.896;37.396;2022-08-21T00:19:57;58.25;;;40.35;;
70205;SDS011;57593;55.896;37.396;2022-08-21T00:20:28;57.03;;;39.88;;
70205;SDS011;57593;55.896;37.396;2022-08-21T00:20:59;55.53;;;39.55;;
70205;SDS011;57593;55.896;37.396;2022-08-21T00:21:30;56.63;;;40.28;;
70205;SDS011;57593;55.896;37.396;2022-08-21T00:22:02;55.95;;;40.38;;
70205;SDS011;57593;55.896;37.396;2022-08-21T00:22:32;57.53;;;40.55;;
70205;SDS011;57593;55.896;37.396;2022-08-21T00:23:03;57.15;;;42.00;;
70205;SDS011;57593;55.896;37.396;2022-08-21T00:23:34;55.92;;;39.70;;
70205;SDS011;57593;55.896;37.396;2022-08-21T00:24:05;56.00;;;41.33;;
70205;SDS011;57593;55.896;37.396;2022-08-21T00:24:36;58.75;;;42.08;;
70205;SDS011;57593;55.896;37.396;2022-08-21T00:25:07;58.10;;;40.60;;
70205;SDS011;57593;55.896;37.396;2022-08-21T00:25:38;57.40;;;40.17;;
70205;SDS011;57593;55.896;37.396;2022-08-21T00:26:09;57.25;;;40.00;;
70205;SDS011;57593;55.896;37.396;2022-08-21T00:26:40;56.20;;;40.75;;
70205;SDS011;57593;55.896;37.396;2022-08-21T00:27:11;53.30;;;39.58;;
70205;SDS011;57593;55.896;37.396;2022-08-21T00:27:42;57.35;;;40.78;;
70205;SDS011;57593;55.896;37.396;2022-08-21T00:28:15;56.78;;;39.85;;
70205;SDS011;57593;55.896;37.396;2022-08-21T00:28:46;55.45;;;41.65;;
70205;SDS011;57593;55.896;37.396;2022-08-21T00:29:19;54.92;;;40.65;;
70205;SDS011;57593;55.896;37.396;2022-08-21T00:29:49;60.42;;;40.50;;
70205;SDS011;57593;55.896;37.396;2022-08-21T00:30:21;62.10;;;42.30;;
70205;SDS011;57593;55.896;37.396;2022-08-21T00:30:54;55.75;;;40.95;;
70205;SDS011;57593;55.896;37.396;2022-08-21T00:31:26;61.47;;;41.85;;
70205;SDS011;57593;55.896;37.396;2022-08-21T00:31:57;56.28;;;41.67;;
70205;SDS011;57593;55.896;37.396;2022-08-21T00:32:29;54.92;;;40.42;;
70205;SDS011;57593;55.896;37.396;2022-08-21T00:33:00;60.47;;;40.70;;
70205;SDS011;57593;55.896;37.396;2022-08-21T00:33:31;59.92;;;41.13;;
70205;SDS011;57593;55.896;37.396;2022-08-21T00:34:02;56.03;;;41.92;;
70205;SDS011;57593;55.896;37.396;2022-08-21T00:34:33;58.72;;;42.45;;
70205;SDS011;57593;55.896;37.396;2022-08-21T00:35:07;58.22;;;42.75;;
70205;SDS011;57593;55.896;37.396;2022-08-21T00:35:42;56.95;;;41.33;;
70205;SDS011;57593;55.896;37.396;2022-08-21T00:36:13;60.75;;;42.53;;
70205;SDS011;57593;55.896;37.396;2022-08-21T00:36:44;57.35;;;39.20;;
70205;SDS011;57593;55.896;37.396;2022-08-21T00:37:15;55.97;;;40.65;;
70205;SDS011;57593;55.896;37.396;2022-08-21T00:37:46;64.20;;;41.92;;
70205;SDS011;57593;55.896;37.396;2022-08-21T00:38:17;63.08;;;41.50;;
70205;SDS011;57593;55.896;37.396;2022-08-21T00:38:47;59.15;;;41.08;;
70205;SDS011;57593;55.896;37.396;2022-08-21T00:39:18;59.28;;;41.00;;
70205;SDS011;57593;55.896;37.396;2022-08-21T00:39:49;59.85;;;41.15;;
70205;SDS011;57593;55.896;37.396;2022-08-21T00:40:22;59.67;;;41.40;;
70205;SDS011;57593;55.896;37.396;2022-08-21T00:40:58;55.38;;;40.35;;
70205;SDS011;57593;55.896;37.396;2022-08-21T00:41:30;64.22;;;41.95;;
70205;SDS011;57593;55.896;37.396;2022-08-21T00:42:01;60.95;;;42.25;;
70205;SDS011;57593;55.896;37.396;2022-08-21T00:42:32;68.72;;;44.22;;
70205;SDS011;57593;55.896;37.396;2022-08-21T00:43:04;59.22;;;40.53;;
70205;SDS011;57593;55.896;37.396;2022-08-21T00:43:38;59.53;;;41.05;;
70205;SDS011;57593;55.896;37.396;2022-08-21T00:44:11;55.22;;;41.67;;
70205;SDS011;57593;55.896;37.396;2022-08-21T00:44:43;56.50;;;41.40;;
70205;SDS011;57593;55.896;37.396;2022-08-21T00:45:16;62.20;;;42.88;;
70205;SDS011;57593;55.896;37.396;2022-08-21T00:45:47;54.45;;;40.95;;
70205;SDS011;57593;55.896;37.396;2022-08-21T00:46:18;59.92;;;42.90;;
70205;SDS011;57593;55.896;37.396;2022-08-21T00:46:49;53.42;;;41.00;;
70205;SDS011;57593;55.896;37.396;2022-08-21T00:47:20;55.22;;;41.35;;
70205;SDS011;57593;55.896;37.396;2022-08-21T00:47:51;50.63;;;39.90;;
70205;SDS011;57593;55.896;37.396;2022-08-21T00:48:22;62.97;;;41.08;;
70205;SDS011;57593;55.896;37.396;2022-08-21T00:48:53;61.33;;;40.95;;
70205;SDS011;57593;55.896;37.396;2022-08-21T00:49:24;60.17;;;41.10;;
70205;SDS011;57593;55.896;37.396;2022-08-21T00:49:55;61.55;;;42.38;;
70205;SDS011;57593;55.896;37.396;2022-08-21T00:50:29;60.60;;;41.08;;
70205;SDS011;57593;55.896;37.396;2022-08-21T00:51:44;53.92;;;41.20;;
70205;SDS011;57593;55.896;37.396;2022-08-21T00:52:19;60.67;;;41.67;;
70205;SDS011;57593;55.896;37.396;2022-08-21T00:52:52;62.97;;;41.55;;
70205;SDS011;57593;55.896;37.396;2022-08-21T00:53:23;61.03;;;42.30;;
70205;SDS011;57593;55.896;37.396;2022-08-21T00:53:55;58.08;;;41.65;;
70205;SDS011;57593;55.896;37.396;2022-08-21T00:54:31;57.65;;;41.00;;
70205;SDS011;57593;55.896;37.396;2022-08-21T00:55:03;66.65;;;42.90;;
70205;SDS011;57593;55.896;37.396;2022-08-21T00:55:37;59.63;;;42.25;;
70205;SDS011;57593;55.896;37.396;2022-08-21T00:56:08;58.50;;;41.75;;
70205;SDS011;57593;55.896;37.396;2022-08-21T00:56:40;54.63;;;41.33;;
70205;SDS011;57593;55.896;37.396;2022-08-21T00:57:16;59.65;;;41.65;;
70205;SDS011;57593;55.896;37.396;2022-08-21T00:57:52;60.72;;;41.85;;
70205;SDS011;57593;55.896;37.396;2022-08-21T00:58:26;58.22;;;42.00;;
70205;SDS011;57593;55.896;37.396;2022-08-21T00:58:59;57.67;;;40.80;;
70205;SDS011;57593;55.896;37.396;2022-08-21T00:59:32;58.80;;;41.45;;
70205;SDS011;57593;55.896;37.396;2022-08-21T01:00:07;59.42;;;41.67;;
70205;SDS011;57593;55.896;37.396;2022-08-21T01:00:42;59.60;;;42.67;;
70205;SDS011;57593;55.896;37.396;2022-08-21T01:01:14;65.00;;;42.28;;
70205;SDS011;57593;55.896;37.396;2022-08-21T01:01:45;61.90;;;42.55;;
70205;SDS011;57593;55.896;37.396;2022-08-21T01:02:17;62.17;;;42.00;;
70205;SDS011;57593;55.896;37.396;2022-08-21T01:02:48;56.22;;;40.35;;
70205;SDS011;57593;55.896;37.396;2022-08-21T01:03:21;62.90;;;42.80;;
70205;SDS011;57593;55.896;37.396;2022-08-21T01:03:53;58.05;;;40.40;;
70205;SDS011;57593;55.896;37.396;2022-08-21T01:04:24;60.42;;;42.67;;
70205;SDS011;57593;55.896;37.396;2022-08-21T01:04:55;61.15;;;41.00;;
70205;SDS011;57593;55.896;37.396;2022-08-21T01:05:25;65.18;;;41.85;;
70205;SDS011;57593;55.896;37.396;2022-08-21T01:05:57;59.60;;;41.05;;
70205;SDS011;57593;55.896;37.396;2022-08-21T01:06:27;59.60;;;40.00;;
70205;SDS011;57593;55.896;37.396;2022-08-21T01:06:58;62.05;;;40.85;;
70205;SDS011;57593;55.896;37.396;2022-08-21T01:07:29;55.33;;;40.70;;
70205;SDS011;57593;55.896;37.396;2022-08-21T01:08:00;59.20;;;38.63;;
70205;SDS011;57593;55.896;37.396;2022-08-21T01:08:31;54.28;;;39.55;;
70205;SDS011;57593;55.896;37.396;2022-08-21T01:09:03;58.70;;;40.63;;
70205;SDS011;57593;55.896;37.396;2022-08-21T01:09:35;56.90;;;40.67;;
70205;SDS011;57593;55.896;37.396;2022-08-21T01:10:07;56.05;;;40.15;;
70205;SDS011;57593;55.896;37.396;2022-08-21T01:10:39;55.53;;;40.05;;
70205;SDS011;57593;55.896;37.396;2022-08-21T01:11:10;60.15;;;40.55;;
70205;SDS011;57593;55.896;37.396;2022-08-21T01:11:41;59.00;;;40.47;;
70205;SDS011;57593;55.896;37.396;2022-08-21T01:12:13;57.95;;;40.63;;
70205;SDS011;57593;55.896;37.396;2022-08-21T01:12:45;58.70;;;40.95;;
70205;SDS011;57593;55.896;37.396;2022-08-21T01:13:17;55.15;;;39.95;;
70205;SDS011;57593;55.896;37.396;2022-08-21T01:13:49;55.75;;;40.65;;
70205;SDS011;57593;55.896;37.396;2022-08-21T01:14:22;54.42;;;38.67;;
70205;SDS011;57593;55.896;37.396;2022-08-21T01:14:52;53.75;;;38.72;;
70205;SDS011;57593;55.896;37.396;2022-08-21T01:15:24;54.30;;;38.92;;
70205;SDS011;57593;55.896;37.396;2022-08-21T01:15:59;59.05;;;40.42;;
70205;SDS011;57593;55.896;37.396;2022-08-21T01:16:33;55.58;;;39.47;;
70205;SDS011;57593;55.896;37.396;2022-08-21T01:17:04;60.35;;;41.30;;
70205;SDS011;57593;55.896;37.396;2022-08-21T01:17:35;57.40;;;39.45;;
70205;SDS011;57593;55.896;37.396;2022-08-21T01:18:07;56.47;;;39.67;;
70205;SDS011;57593;55.896;37.396;2022-08-21T01:18:39;61.00;;;39.90;;
70205;SDS011;57593;55.896;37.396;2022-08-21T01:19:11;54.70;;;39.05;;
70205;SDS011;57593;55.896;37.396;2022-08-21T01:19:42;54.50;;;40.92;;
70205;SDS011;57593;55.896;37.396;2022-08-21T01:20:13;53.35;;;38.45;;
70205;SDS011;57593;55.896;37.396;2022-08-21T01:20:55;62.50;;;39.60;;
70205;SDS011;57593;55.896;37.396;2022-08-21T01:21:31;55.42;;;39.90;;
70205;SDS011;57593;55.896;37.396;2022-08-21T01:22:03;58.78;;;40.20;;
70205;SDS011;57593;55.896;37.396;2022-08-21T01:22:34;56.42;;;39.00;;
70205;SDS011;57593;55.896;37.396;2022-08-21T01:23:05;57.08;;;38.92;;
70205;SDS011;57593;55.896;37.396;2022-08-21T01:23:37;54.72;;;38.03;;
70205;SDS011;57593;55.896;37.396;2022-08-21T01:24:10;59.22;;;39.53;;
70205;SDS011;57593;55.896;37.396;2022-08-21T01:24:42;57.50;;;38.78;;
70205;SDS011;57593;55.896;37.396;2022-08-21T01:25:13;59.70;;;40.30;;
70205;SDS011;57593;55.896;37.396;2022-08-21T01:25:45;63.03;;;41.58;;
70205;SDS011;57593;55.896;37.396;2022-08-21T01:26:17;56.78;;;40.22;;
70205;SDS011;57593;55.896;37.396;2022-08-21T01:26:50;58.78;;;38.95;;
70205;SDS011;57593;55.896;37.396;2022-08-21T01:27:21;54.83;;;37.88;;
70205;SDS011;57593;55.896;37.396;2022-08-21T01:27:52;57.40;;;38.22;;
70205;SDS011;57593;55.896;37.396;2022-08-21T01:28:22;52.75;;;38.08;;
70205;SDS011;57593;55.896;37.396;2022-08-21T01:29:03;56.75;;;39.78;;
70205;SDS011;57593;55.896;37.396;2022-08-21T01:29:50;60.53;;;38.95;;
70205;SDS011;57593;55.896;37.396;2022-08-21T01:30:25;54.28;;;40.00;;
70205;SDS011;57593;55.896;37.396;2022-08-21T01:30:57;54.53;;;39.40;;
70205;SDS011;57593;55.896;37.396;2022-08-21T01:31:31;52.38;;;38.40;;
70205;SDS011;57593;55.896;37.396;2022-08-21T01:32:18;60.78;;;38.40;;
70205;SDS011;57593;55.896;37.396;2022-08-21T01:32:50;53.47;;;38.15;;
70205;SDS011;57593;55.896;37.396;2022-08-21T01:33:22;52.33;;;37.92;;
70205;SDS011;57593;55.896;37.396;2022-08-21T01:33:55;52.15;;;38.70;;
70205;SDS011;57593;55.896;37.396;2022-08-21T01:34:32;55.20;;;38.65;;
70205;SDS011;57593;55.896;37.396;2022-08-21T01:35:06;56.20;;;38.95;;
70205;SDS011;57593;55.896;37.396;2022-08-21T01:35:38;59.45;;;38.75;;
70205;SDS011;57593;55.896;37.396;2022-08-21T01:36:08;55.90;;;38.53;;
70205;SDS011;57593;55.896;37.396;2022-08-21T01:36:40;55.53;;;38.25;;
70205;SDS011;57593;55.896;37.396;2022-08-21T01:37:21;57.40;;;39.10;;
70205;SDS011;57593;55.896;37.396;2022-08-21T01:37:52;52.47;;;37.40;;
70205;SDS011;57593;55.896;37.396;2022-08-21T01:38:24;56.47;;;37.70;;
70205;SDS011;57593;55.896;37.396;2022-08-21T01:38:55;56.92;;;37.85;;
70205;SDS011;57593;55.896;37.396;2022-08-21T01:39:52;60.63;;;39.20;;
70205;SDS011;57593;55.896;37.396;2022-08-21T01:40:23;51.05;;;37.28;;
70205;SDS011;57593;55.896;37.396;2022-08-21T01:40:54;58.63;;;38.47;;
70205;SDS011;57593;55.896;37.396;2022-08-21T01:41:24;55.45;;;37.38;;
70205;SDS011;57593;55.896;37.396;2022-08-21T01:41:55;53.05;;;36.85;;
70205;SDS011;57593;55.896;37.396;2022-08-21T01:42:26;51.33;;;37.58;;
70205;SDS011;57593;55.896;37.396;2022-08-21T01:42:56;55.65;;;39.33;;
70205;SDS011;57593;55.896;37.396;2022-08-21T01:43:27;50.88;;;37.20;;
70205;SDS011;57593;55.896;37.396;2022-08-21T01:43:58;51.83;;;37.45;;
70205;SDS011;57593;55.896;37.396;2022-08-21T01:44:29;57.80;;;38.25;;
70205;SDS011;57593;55.896;37.396;2022-08-21T01:44:59;59.35;;;38.13;;
70205;SDS011;57593;55.896;37.396;2022-08-21T01:45:30;57.33;;;37.50;;
70205;SDS011;57593;55.896;37.396;2022-08-21T01:46:02;58.00;;;38.58;;
70205;SDS011;57593;55.896;37.396;2022-08-21T01:46:35;53.97;;;38.42;;
70205;SDS011;57593;55.896;37.396;2022-08-21T01:47:07;51.88;;;38.17;;
70205;SDS011;57593;55.896;37.396;2022-08-21T01:47:39;52.95;;;38.03;;
70205;SDS011;57593;55.896;37.396;2022-08-21T01:48:10;59.00;;;38.42;;
70205;SDS011;57593;55.896;37.396;2022-08-21T01:48:41;51.50;;;36.63;;
70205;SDS011;57593;55.896;37.396;2022-08-21T01:49:12;52.47;;;37.58;;
70205;SDS011;57593;55.896;37.396;2022-08-21T01:49:43;57.97;;;38.58;;
70205;SDS011;57593;55.896;37.396;2022-08-21T01:50:15;50.85;;;36.47;;
70205;SDS011;57593;55.896;37.396;2022-08-21T01:50:50;57.40;;;37.92;;
70205;SDS011;57593;55.896;37.396;2022-08-21T01:51:21;52.63;;;37.65;;
70205;SDS011;57593;55.896;37.396;2022-08-21T01:51:52;54.92;;;36.60;;
70205;SDS011;57593;55.896;37.396;2022-08-21T01:52:22;53.92;;;36.75;;
70205;SDS011;57593;55.896;37.396;2022-08-21T01:52:53;55.17;;;37.20;;
70205;SDS011;57593;55.896;37.396;2022-08-21T01:53:24;53.35;;;36.67;;
70205;SDS011;57593;55.896;37.396;2022-08-21T01:53:55;53.55;;;35.80;;
70205;SDS011;57593;55.896;37.396;2022-08-21T01:54:26;52.80;;;36.63;;
70205;SDS011;57593;55.896;37.396;2022-08-21T01:54:56;49.70;;;35.85;;
70205;SDS011;57593;55.896;37.396;2022-08-21T01:55:27;52.22;;;37.53;;
70205;SDS011;57593;55.896;37.396;2022-08-21T01:55:58;51.63;;;36.40;;
70205;SDS011;57593;55.896;37.396;2022-08-21T01:56:28;57.72;;;38.53;;
70205;SDS011;57593;55.896;37.396;2022-08-21T01:57:05;50.78;;;35.90;;
70205;SDS011;57593;55.896;37.396;2022-08-21T01:57:36;52.22;;;36.33;;
70205;SDS011;57593;55.896;37.396;2022-08-21T01:58:07;51.42;;;33.95;;
70205;SDS011;57593;55.896;37.396;2022-08-21T01:58:38;46.78;;;35.10;;
70205;SDS011;57593;55.896;37.396;2022-08-21T01:59:11;49.75;;;35.90;;
70205;SDS011;57593;55.896;37.396;2022-08-21T01:59:42;48.80;;;36.08;;
70205;SDS011;57593;55.896;37.396;2022-08-21T02:00:16;52.75;;;36.33;;
70205;SDS011;57593;55.896;37.396;2022-08-21T02:00:48;51.10;;;36.15;;
70205;SDS011;57593;55.896;37.396;2022-08-21T02:01:23;48.00;;;35.75;;
70205;SDS011;57593;55.896;37.396;2022-08-21T02:01:54;55.10;;;35.63;;
70205;SDS011;57593;55.896;37.396;2022-08-21T02:02:25;51.80;;;36.45;;
70205;SDS011;57593;55.896;37.396;2022-08-21T02:02:56;50.13;;;35.22;;
70205;SDS011;57593;55.896;37.396;2022-08-21T02:03:27;50.65;;;36.40;;
70205;SDS011;57593;55.896;37.396;2022-08-21T02:03:58;53.85;;;37.30;;
70205;SDS011;57593;55.896;37.396;2022-08-21T02:04:29;54.33;;;35.95;;
70205;SDS011;57593;55.896;37.396;2022-08-21T02:05:00;53.20;;;36.10;;
70205;SDS011;57593;55.896;37.396;2022-08-21T02:05:31;54.78;;;35.60;;
70205;SDS011;57593;55.896;37.396;2022-08-21T02:06:03;52.92;;;35.10;;
70205;SDS011;57593;55.896;37.396;2022-08-21T02:06:35;56.00;;;36.90;;
70205;SDS011;57593;55.896;37.396;2022-08-21T02:07:07;47.97;;;35.83;;
70205;SDS011;57593;55.896;37.396;2022-08-21T02:07:42;48.03;;;36.20;;
70205;SDS011;57593;55.896;37.396;2022-08-21T02:08:15;51.90;;;36.05;;
70205;SDS011;57593;55.896;37.396;2022-08-21T02:08:46;55.17;;;36.28;;
70205;SDS011;57593;55.896;37.396;2022-08-21T02:09:16;50.78;;;35.55;;
70205;SDS011;57593;55.896;37.396;2022-08-21T02:09:47;50.92;;;34.15;;
70205;SDS011;57593;55.896;37.396;2022-08-21T02:10:21;51.70;;;34.75;;
70205;SDS011;57593;55.896;37.396;2022-08-21T02:10:56;48.63;;;34.78;;
70205;SDS011;57593;55.896;37.396;2022-08-21T02:11:27;48.13;;;34.40;;
70205;SDS011;57593;55.896;37.396;2022-08-21T02:11:57;49.58;;;34.83;;
70205;SDS011;57593;55.896;37.396;2022-08-21T02:12:28;52.13;;;35.65;;
70205;SDS011;57593;55.896;37.396;2022-08-21T02:13:19;50.85;;;35.70;;
70205;SDS011;57593;55.896;37.396;2022-08-21T02:13:52;49.88;;;35.10;;
70205;SDS011;57593;55.896;37.396;2022-08-21T02:14:23;53.22;;;35.10;;
70205;SDS011;57593;55.896;37.396;2022-08-21T02:14:53;48.90;;;35.35;;
70205;SDS011;57593;55.896;37.396;2022-08-21T02:15:24;54.53;;;35.63;;
70205;SDS011;57593;55.896;37.396;2022-08-21T02:15:55;53.47;;;35.22;;
70205;SDS011;57593;55.896;37.396;2022-08-21T02:16:25;48.63;;;34.63;;
70205;SDS011;57593;55.896;37.396;2022-08-21T02:16:57;52.55;;;35.15;;
70205;SDS011;57593;55.896;37.396;2022-08-21T02:17:36;46.72;;;34.47;;
70205;SDS011;57593;55.896;37.396;2022-08-21T02:18:12;51.63;;;34.63;;
70205;SDS011;57593;55.896;37.396;2022-08-21T02:18:43;51.35;;;33.60;;
70205;SDS011;57593;55.896;37.396;2022-08-21T02:19:14;51.63;;;35.03;;
70205;SDS011;57593;55.896;37.396;2022-08-21T02:19:47;51.33;;;34.33;;
70205;SDS011;57593;55.896;37.396;2022-08-21T02:20:19;47.88;;;33.08;;
70205;SDS011;57593;55.896;37.396;2022-08-21T02:20:54;49.20;;;34.58;;
70205;SDS011;57593;55.896;37.396;2022-08-21T02:21:24;47.75;;;33.70;;
70205;SDS011;57593;55.896;37.396;2022-08-21T02:21:57;50.80;;;34.83;;
70205;SDS011;57593;55.896;37.396;2022-08-21T02:22:28;53.50;;;36.03;;
70205;SDS011;57593;55.896;37.396;2022-08-21T02:22:59;53.53;;;35.15;;
70205;SDS011;57593;55.896;37.396;2022-08-21T02:23:30;47.00;;;34.42;;
70205;SDS011;57593;55.896;37.396;2022-08-21T02:24:02;46.65;;;33.55;;
70205;SDS011;57593;55.896;37.396;2022-08-21T02:24:33;48.70;;;34.67;;
70205;SDS011;57593;55.896;37.396;2022-08-21T02:25:04;54.33;;;35.28;;
70205;SDS011;57593;55.896;37.396;2022-08-21T02:25:34;52.22;;;33.20;;
70205;SDS011;57593;55.896;37.396;2022-08-21T02:26:07;50.90;;;34.13;;
70205;SDS011;57593;55.896;37.396;2022-08-21T02:26:38;46.50;;;34.00;;
70205;SDS011;57593;55.896;37.396;2022-08-21T02:27:09;45.63;;;33.33;;
70205;SDS011;57593;55.896;37.396;2022-08-21T02:27:40;49.30;;;33.75;;
70205;SDS011;57593;55.896;37.396;2022-08-21T02:28:13;48.78;;;33.20;;
70205;SDS011;57593;55.896;37.396;2022-08-21T02:28:44;50.92;;;33.60;;
70205;SDS011;57593;55.896;37.396;2022-08-21T02:29:15;46.85;;;33.65;;
70205;SDS011;57593;55.896;37.396;2022-08-21T02:29:46;51.53;;;34.40;;
70205;SDS011;57593;55.896;37.396;2022-08-21T02:30:19;49.17;;;33.05;;
70205;SDS011;57593;55.896;37.396;2022-08-21T02:30:56;46.70;;;33.70;;
70205;SDS011;57593;55.896;37.396;2022-08-21T02:31:27;54.97;;;34.67;;
70205;SDS011;57593;55.896;37.396;2022-08-21T02:31:57;50.72;;;33.33;;
70205;SDS011;57593;55.896;37.396;2022-08-21T02:32:28;46.63;;;33.17;;
70205;SDS011;57593;55.896;37.396;2022-08-21T02:32:59;50.47;;;34.30;;
70205;SDS011;57593;55.896;37.396;2022-08-21T02:33:30;49.45;;;34.13;;
70205;SDS011;57593;55.896;37.396;2022-08-21T02:34:01;51.67;;;34.05;;
70205;SDS011;57593;55.896;37.396;2022-08-21T02:34:32;48.05;;;33.60;;
70205;SDS011;57593;55.896;37.396;2022-08-21T02:35:03;48.05;;;33.72;;
70205;SDS011;57593;55.896;37.396;2022-08-21T02:35:34;54.63;;;33.42;;
70205;SDS011;57593;55.896;37.396;2022-08-21T02:36:05;46.97;;;32.15;;
70205;SDS011;57593;55.896;37.396;2022-08-21T02:36:37;50.83;;;33.92;;
70205;SDS011;57593;55.896;37.396;2022-08-21T02:37:07;45.55;;;33.08;;
70205;SDS011;57593;55.896;37.396;2022-08-21T02:37:46;43.05;;;32.80;;
70205;SDS011;57593;55.896;37.396;2022-08-21T02:38:26;44.20;;;33.85;;
70205;SDS011;57593;55.896;37.396;2022-08-21T02:38:59;51.78;;;32.30;;
70205;SDS011;57593;55.896;37.396;2022-08-21T02:39:30;46.70;;;32.83;;
70205;SDS011;57593;55.896;37.396;2022-08-21T02:40:00;48.17;;;34.30;;
70205;SDS011;57593;55.896;37.396;2022-08-21T02:40:33;45.28;;;32.63;;
70205;SDS011;57593;55.896;37.396;2022-08-21T02:41:15;50.67;;;33.70;;
70205;SDS011;57593;55.896;37.396;2022-08-21T02:41:48;45.70;;;33.33;;
70205;SDS011;57593;55.896;37.396;2022-08-21T02:42:19;49.95;;;32.75;;
70205;SDS011;57593;55.896;37.396;2022-08-21T02:42:49;48.40;;;33.28;;
70205;SDS011;57593;55.896;37.396;2022-08-21T02:43:21;45.97;;;32.20;;
70205;SDS011;57593;55.896;37.396;2022-08-21T02:43:53;53.25;;;33.33;;
70205;SDS011;57593;55.896;37.396;2022-08-21T02:44:24;52.38;;;34.00;;
70205;SDS011;57593;55.896;37.396;2022-08-21T02:44:55;48.33;;;33.25;;
70205;SDS011;57593;55.896;37.396;2022-08-21T02:45:26;49.30;;;33.88;;
70205;SDS011;57593;55.896;37.396;2022-08-21T02:45:58;45.55;;;32.22;;
70205;SDS011;57593;55.896;37.396;2022-08-21T02:46:30;53.67;;;34.58;;
70205;SDS011;57593;55.896;37.396;2022-08-21T02:47:01;47.78;;;33.10;;
70205;SDS011;57593;55.896;37.396;2022-08-21T02:47:32;53.08;;;33.10;;
70205;SDS011;57593;55.896;37.396;2022-08-21T02:48:04;45.08;;;31.40;;
70205;SDS011;57593;55.896;37.396;2022-08-21T02:48:37;46.10;;;32.47;;
70205;SDS011;57593;55.896;37.396;2022-08-21T02:49:08;48.63;;;32.78;;
70205;SDS011;57593;55.896;37.396;2022-08-21T02:49:39;51.10;;;34.28;;
70205;SDS011;57593;55.896;37.396;2022-08-21T02:50:09;45.50;;;33.05;;
70205;SDS011;57593;55.896;37.396;2022-08-21T02:50:41;44.38;;;31.75;;
70205;SDS011;57593;55.896;37.396;2022-08-21T02:51:18;49.05;;;32.92;;
70205;SDS011;57593;55.896;37.396;2022-08-21T02:51:50;47.28;;;33.22;;
70205;SDS011;57593;55.896;37.396;2022-08-21T02:52:21;45.95;;;33.53;;
70205;SDS011;57593;55.896;37.396;2022-08-21T02:52:52;45.45;;;32.08;;
70205;SDS011;57593;55.896;37.396;2022-08-21T02:53:26;46.58;;;32.72;;
70205;SDS011;57593;55.896;37.396;2022-08-21T02:53:58;48.67;;;32.75;;
70205;SDS011;57593;55.896;37.396;2022-08-21T02:54:29;47.40;;;32.72;;
70205;SDS011;57593;55.896;37.396;2022-08-21T02:55:00;47.55;;;32.75;;
70205;SDS011;57593;55.896;37.396;2022-08-21T02:55:31;48.88;;;33.85;;
70205;SDS011;57593;55.896;37.396;2022-08-21T02:56:04;49.13;;;31.98;;
70205;SDS011;57593;55.896;37.396;2022-08-21T02:56:38;49.35;;;32.10;;
70205;SDS011;57593;55.896;37.396;2022-08-21T02:57:09;52.78;;;32.92;;
70205;SDS011;57593;55.896;37.396;2022-08-21T02:57:39;47.03;;;32.60;;
70205;SDS011;57593;55.896;37.396;2022-08-21T02:58:10;52.63;;;32.95;;
70205;SDS011;57593;55.896;37.396;2022-08-21T02:58:47;46.47;;;32.88;;
70205;SDS011;57593;55.896;37.396;2022-08-21T02:59:21;47.58;;;32.63;;
70205;SDS011;57593;55.896;37.396;2022-08-21T02:59:52;50.97;;;31.83;;
70205;SDS011;57593;55.896;37.396;2022-08-21T03:00:23;48.28;;;33.30;;
70205;SDS011;57593;55.896;37.396;2022-08-21T03:00:55;49.08;;;32.58;;
70205;SDS011;57593;55.896;37.396;2022-08-21T03:01:26;52.88;;;34.05;;
70205;SDS011;57593;55.896;37.396;2022-08-21T03:01:57;47.83;;;31.55;;
70205;SDS011;57593;55.896;37.396;2022-08-21T03:02:27;48.33;;;32.25;;
70205;SDS011;57593;55.896;37.396;2022-08-21T03:02:58;53.83;;;32.47;;
70205;SDS011;57593;55.896;37.396;2022-08-21T03:03:29;44.45;;;32.10;;
70205;SDS011;57593;55.896;37.396;2022-08-21T03:04:00;49.88;;;32.58;;
70205;SDS011;57593;55.896;37.396;2022-08-21T03:04:31;47.97;;;32.92;;
70205;SDS011;57593;55.896;37.396;2022-08-21T03:05:02;47.20;;;32.50;;
70205;SDS011;57593;55.896;37.396;2022-08-21T03:05:34;47.60;;;33.00;;
70205;SDS011;57593;55.896;37.396;2022-08-21T03:06:08;43.40;;;32.25;;